Bradshaw, Nebraska
Current Conditions -  °F | °C
As of 6:15 AM on Friday 28 Nov 2014 (Local Time) from KJYR Reporting Station
Clear Clear  
Wind Chill: 15°   Ceiling: Unl
Heat Index: 23°   Visibility: 10mi
Dew Point: 19°   Wind: 7mph
Humidity: 86%   Direction: 200°SSW
Pressure: 29.88"   Gusts: NA
Location:  40.88°N, 97.75°W
Report Text: KJYR 281215Z AUTO 20006KT 10SM CLR M05/M07 A2988 RMK AO2
Loading
Personal Weather Stations






























Interactive Weather Map New forecast layout! Learn more

10-Day Weather Forecast

Advertisements
Track Severe Weather on mobile